createdAt,value
2023-02-19T00:01:24.549Z,99671.34
2023-02-19T00:03:54.019Z,99562.06
2023-02-19T00:06:21.931Z,99663.81
2023-02-19T00:08:48.831Z,99662.47
2023-02-19T00:11:18.578Z,99599.19
2023-02-19T00:13:47.684Z,99659.72
2023-02-19T00:16:20.148Z,99500.53
2023-02-19T00:18:47.275Z,99654.88
2023-02-19T00:21:14.985Z,99655.38
2023-02-19T00:23:41.672Z,99666.63
2023-02-19T00:26:18.121Z,99641.47
2023-02-19T00:28:48.388Z,99667.88
2023-02-19T00:31:18.870Z,99660.75
2023-02-19T00:33:49.134Z,99673.34
2023-02-19T00:36:16.661Z,99670.03
2023-02-19T00:38:44.291Z,99664.38
2023-02-19T00:41:21.855Z,99635.13
2023-02-19T00:43:59.682Z,99676.44
2023-02-19T00:46:33.733Z,99560.38
2023-02-19T00:49:01.136Z,99673.00
2023-02-19T00:51:30.881Z,99402.63
2023-02-19T00:53:59.408Z,99607.16
2023-02-19T00:56:26.473Z,99596.06
2023-02-19T00:58:53.332Z,99412.44
2023-02-19T01:01:20.878Z,99682.53
2023-02-19T01:03:47.995Z,99683.31
2023-02-19T01:06:16.771Z,99683.97
2023-02-19T01:08:44.152Z,99681.13
2023-02-19T01:11:11.754Z,99459.22
2023-02-19T01:13:39.368Z,99673.97
2023-02-19T01:16:13.127Z,99675.97
2023-02-19T01:18:40.021Z,99656.25
2023-02-19T01:21:08.825Z,99546.91
2023-02-19T01:23:36.372Z,99665.69
2023-02-19T01:26:12.769Z,99548.16
2023-02-19T01:28:39.562Z,99677.16
2023-02-19T01:31:09.168Z,99680.16
2023-02-19T01:33:36.356Z,99519.47
2023-02-19T01:36:05.040Z,99602.31
2023-02-19T01:38:31.996Z,99686.53
2023-02-19T01:41:01.807Z,99424.00
2023-02-19T01:43:29.007Z,99568.16
2023-02-19T01:45:55.720Z,99617.41
2023-02-19T01:48:38.208Z,99676.69
2023-02-19T01:51:15.525Z,99670.31
2023-02-19T01:53:46.111Z,99677.84
2023-02-19T01:56:16.218Z,99624.97
2023-02-19T01:58:43.152Z,99678.59
2023-02-19T02:01:10.128Z,99677.25
2023-02-19T02:03:40.479Z,99679.94
2023-02-19T02:06:07.283Z,99670.09
2023-02-19T02:08:52.865Z,99691.59
2023-02-19T02:11:21.421Z,99678.19
2023-02-19T02:13:49.336Z,99685.09
2023-02-19T02:16:34.806Z,99677.06
2023-02-19T02:19:32.268Z,99681.50
2023-02-19T02:22:09.713Z,99138.00
2023-02-19T02:25:15.578Z,99682.13
2023-02-19T02:28:12.937Z,99690.97
2023-02-19T02:30:53.224Z,99680.84
2023-02-19T02:33:39.634Z,99684.09
2023-02-19T02:36:08.846Z,99692.59
2023-02-19T02:38:40.504Z,99839.59
2023-02-19T02:41:07.333Z,99692.53
2023-02-19T02:43:34.119Z,99693.28
2023-02-19T02:46:01.264Z,99689.50
2023-02-19T02:48:55.366Z,99690.34
2023-02-19T02:51:34.503Z,99694.13
2023-02-19T02:54:29.535Z,99699.59
2023-02-19T02:56:58.837Z,99529.66
2023-02-19T02:59:33.875Z,99558.41
2023-02-19T03:02:11.721Z,99704.69
2023-02-19T03:05:09.531Z,99712.81
2023-02-19T03:07:41.566Z,99707.22
2023-02-19T03:10:13.421Z,99706.72
2023-02-19T03:13:01.423Z,99684.63
2023-02-19T03:15:52.019Z,99714.53
2023-02-19T03:18:37.979Z,99589.34
2023-02-19T03:21:07.229Z,99676.59
2023-02-19T03:23:55.232Z,99712.72
2023-02-19T03:26:23.942Z,99755.47
2023-02-19T03:29:11.898Z,99699.47
2023-02-19T03:31:43.818Z,99702.84
2023-02-19T03:34:21.828Z,99407.03
2023-02-19T03:36:57.147Z,99733.44
2023-02-19T03:39:24.429Z,99730.34
2023-02-19T03:42:18.654Z,99709.69
2023-02-19T03:44:48.580Z,99709.25
2023-02-19T03:47:24.369Z,99740.66
2023-02-19T03:50:01.348Z,99753.09
2023-02-19T03:52:54.504Z,99635.31
2023-02-19T03:55:35.171Z,99789.91
2023-02-19T03:58:10.580Z,99758.97
2023-02-19T04:00:44.487Z,99623.50
2023-02-19T04:03:37.457Z,99702.72
2023-02-19T04:06:12.027Z,99720.19
2023-02-19T04:08:43.094Z,99659.72
2023-02-19T04:11:11.887Z,99548.56
2023-02-19T04:13:52.580Z,99762.19
2023-02-19T04:16:23.119Z,99568.47
2023-02-19T04:18:54.513Z,99675.28
2023-02-19T04:21:22.932Z,99762.56
2023-02-19T04:23:49.756Z,99792.22
2023-02-19T04:26:20.138Z,99531.66
2023-02-19T04:28:47.162Z,99798.16
2023-02-19T04:31:14.203Z,99759.53
2023-02-19T04:33:41.236Z,99719.47
2023-02-19T04:36:09.856Z,99793.38
2023-02-19T04:38:36.494Z,99792.41
2023-02-19T04:41:03.733Z,99466.59
2023-02-19T04:43:30.345Z,99788.81
2023-02-19T04:46:01.367Z,99813.41
2023-02-19T04:48:28.783Z,99788.94
2023-02-19T04:50:55.738Z,99590.66
2023-02-19T04:53:22.410Z,99852.84
2023-02-19T04:55:49.142Z,99583.28
2023-02-19T04:58:15.766Z,99797.16
2023-02-19T05:00:42.376Z,99800.16
2023-02-19T05:03:09.090Z,99681.78
2023-02-19T05:05:35.725Z,99776.44
2023-02-19T05:08:02.372Z,99690.31
2023-02-19T05:10:28.940Z,99799.63
2023-02-19T05:12:57.904Z,99633.09
2023-02-19T05:15:24.640Z,99615.31
2023-02-19T05:17:51.293Z,99807.66
2023-02-19T05:20:17.934Z,99809.34
2023-02-19T05:22:44.544Z,99801.16
2023-02-19T05:25:11.096Z,99773.22
2023-02-19T05:27:37.778Z,99577.09
2023-02-19T05:30:04.740Z,99278.00
2023-02-19T05:32:31.512Z,99804.25
2023-02-19T05:34:58.110Z,99507.91
2023-02-19T05:37:24.733Z,99757.16
2023-02-19T05:39:51.290Z,99778.69
2023-02-19T05:42:17.900Z,99620.09
2023-02-19T05:44:44.487Z,99813.34
2023-02-19T05:47:11.111Z,99810.19
2023-02-19T05:49:37.753Z,99819.91
2023-02-19T05:52:04.682Z,99821.44
2023-02-19T05:54:31.393Z,99085.91
2023-02-19T05:56:58.277Z,99693.75
2023-02-19T05:59:26.617Z,99821.59
2023-02-19T06:01:54.740Z,99831.88
2023-02-19T06:04:21.697Z,99834.94
2023-02-19T06:06:48.774Z,99574.78
2023-02-19T06:09:15.418Z,99970.03
2023-02-19T06:11:43.578Z,99828.16
2023-02-19T06:14:13.514Z,99799.31
2023-02-19T06:16:40.502Z,99829.88
2023-02-19T06:19:07.245Z,99786.78
2023-02-19T06:21:34.220Z,99832.88
2023-02-19T06:24:05.140Z,99822.25
2023-02-19T06:26:31.844Z,99828.25
2023-02-19T06:28:58.464Z,99845.13
2023-02-19T06:31:25.987Z,99836.09
2023-02-19T06:33:52.893Z,99772.88
2023-02-19T06:36:20.833Z,99838.25
2023-02-19T06:38:47.652Z,99750.13
2023-02-19T06:41:14.977Z,99703.72
2023-02-19T06:43:42.219Z,99791.81
2023-02-19T06:46:10.757Z,99772.69
2023-02-19T06:48:39.020Z,99844.91
2023-02-19T06:51:05.864Z,99866.09
2023-02-19T06:53:32.468Z,99526.34
2023-02-19T06:56:01.800Z,99835.94
2023-02-19T06:58:29.230Z,99652.53
2023-02-19T07:00:56.457Z,99838.31
2023-02-19T07:03:23.219Z,99844.47
2023-02-19T07:05:50.012Z,99792.97
2023-02-19T07:08:19.592Z,99381.44
2023-02-19T07:10:46.199Z,99847.59
2023-02-19T07:13:12.831Z,99663.28
2023-02-19T07:15:39.567Z,99593.28
2023-02-19T07:18:10.263Z,99856.44
2023-02-19T07:20:37.391Z,99862.34
2023-02-19T07:23:04.148Z,99692.66
2023-02-19T07:25:30.966Z,100047.28
2023-02-19T07:27:57.646Z,99860.78
2023-02-19T07:30:24.373Z,99861.28
2023-02-19T07:32:51.037Z,99877.78
2023-02-19T07:35:17.646Z,99871.16
2023-02-19T07:37:44.229Z,99876.88
2023-02-19T07:40:10.867Z,99844.25
2023-02-19T07:42:37.648Z,99715.09
2023-02-19T07:45:06.024Z,99553.16
2023-02-19T07:47:32.660Z,99889.34
2023-02-19T07:49:59.206Z,99896.22
2023-02-19T07:52:28.942Z,99883.19
2023-02-19T07:54:55.577Z,99878.38
2023-02-19T07:57:22.205Z,99896.19
2023-02-19T07:59:48.852Z,99735.53
2023-02-19T08:02:36.409Z,99889.59
2023-02-19T08:05:04.026Z,99899.56
2023-02-19T08:07:35.001Z,99905.56
2023-02-19T08:10:21.000Z,99878.69
2023-02-19T08:13:19.562Z,99913.84
2023-02-19T08:15:47.054Z,99806.34
2023-02-19T08:18:15.248Z,99909.13
2023-02-19T08:20:42.616Z,99925.25
2023-02-19T08:23:09.540Z,99922.41
2023-02-19T08:25:37.041Z,99920.44
2023-02-19T08:28:04.300Z,99926.59
2023-02-19T08:30:32.337Z,99923.97
2023-02-19T08:33:02.227Z,99927.91
2023-02-19T08:35:29.313Z,99932.28
2023-02-19T08:37:59.200Z,99366.50
2023-02-19T08:40:26.977Z,99820.47
2023-02-19T08:42:53.926Z,99941.34
2023-02-19T08:45:21.131Z,99939.63
2023-02-19T08:47:47.667Z,99937.41
2023-02-19T08:50:14.231Z,99949.53
2023-02-19T08:52:40.866Z,99915.06
2023-02-19T08:55:07.838Z,99948.75
2023-02-19T08:57:37.849Z,99857.56
2023-02-19T09:00:06.791Z,99944.44
2023-02-19T09:02:36.022Z,99936.91
2023-02-19T09:05:03.370Z,99948.09
2023-02-19T09:07:30.016Z,99752.22
2023-02-19T09:09:56.683Z,99951.38
2023-02-19T09:12:23.353Z,99956.41
2023-02-19T09:14:50.398Z,99900.34
2023-02-19T09:17:17.486Z,99814.84
2023-02-19T09:19:44.041Z,99898.34
2023-02-19T09:22:10.727Z,99820.00
2023-02-19T09:24:37.485Z,99956.44
2023-02-19T09:27:04.189Z,99806.63
2023-02-19T09:29:30.788Z,99957.41
2023-02-19T09:31:58.951Z,99983.31
2023-02-19T09:34:27.172Z,99950.84
2023-02-19T09:36:54.859Z,99944.28
2023-02-19T09:39:21.804Z,99944.38
2023-02-19T09:41:55.330Z,99736.19
2023-02-19T09:44:32.552Z,99950.09
2023-02-19T09:47:00.932Z,99979.75
2023-02-19T09:49:36.506Z,99979.16
2023-02-19T09:52:12.053Z,99953.97
2023-02-19T09:54:40.725Z,99805.75
2023-02-19T09:57:19.057Z,99653.16
2023-02-19T09:59:52.108Z,99795.56
2023-02-19T10:02:22.175Z,99955.38
2023-02-19T10:04:53.860Z,99929.28
2023-02-19T10:07:24.071Z,99965.88
2023-02-19T10:09:57.454Z,99898.06
2023-02-19T10:12:30.340Z,99968.31
2023-02-19T10:15:09.240Z,99953.66
2023-02-19T10:17:37.337Z,99909.03
2023-02-19T10:20:04.416Z,99953.09
2023-02-19T10:22:34.736Z,99904.19
2023-02-19T10:25:01.812Z,99868.09
2023-02-19T10:27:31.316Z,99967.97
2023-02-19T10:30:00.192Z,99868.34
2023-02-19T10:32:29.521Z,99827.72
2023-02-19T10:35:14.849Z,99958.63
2023-02-19T10:37:47.078Z,99908.19
2023-02-19T10:40:19.110Z,99455.19
2023-02-19T10:42:48.731Z,99699.47
2023-02-19T10:45:39.584Z,99953.50
2023-02-19T10:48:18.206Z,99813.50
2023-02-19T10:50:56.040Z,99884.38
2023-02-19T10:53:24.551Z,99794.38
2023-02-19T10:56:07.836Z,99724.31
2023-02-19T10:58:34.620Z,99699.88
2023-02-19T11:01:26.985Z,99938.91
2023-02-19T11:04:17.683Z,99950.09
2023-02-19T11:06:45.695Z,99761.88
2023-02-19T11:09:27.011Z,99964.56
2023-02-19T11:11:55.258Z,99957.09
2023-02-19T11:14:27.386Z,99959.22
2023-02-19T11:16:57.092Z,99947.41
2023-02-19T11:19:36.937Z,99946.81
2023-02-19T11:22:27.482Z,99911.91
2023-02-19T11:24:57.778Z,99884.47
2023-02-19T11:27:26.350Z,99931.78
2023-02-19T11:29:53.025Z,99894.00
2023-02-19T11:32:29.631Z,99911.66
2023-02-19T11:35:17.767Z,99912.03
2023-02-19T11:38:01.955Z,99911.19
2023-02-19T11:40:39.657Z,99914.44
2023-02-19T11:43:20.776Z,99815.78
2023-02-19T11:46:10.780Z,99923.19
2023-02-19T11:49:11.431Z,99875.75
2023-02-19T11:51:40.995Z,99933.97
2023-02-19T11:54:22.086Z,99933.69
2023-02-19T11:57:17.369Z,99927.53
2023-02-19T12:00:00.707Z,99878.22
2023-02-19T12:02:55.020Z,99914.25
2023-02-19T12:05:48.018Z,99929.50
2023-02-19T12:08:29.411Z,99937.84
2023-02-19T12:11:19.828Z,99847.28
2023-02-19T12:14:16.341Z,99850.91
2023-02-19T12:17:04.081Z,99730.69
2023-02-19T12:19:44.656Z,99911.09
2023-02-19T12:22:20.357Z,99602.56
2023-02-19T12:25:08.819Z,99934.78
2023-02-19T12:27:41.452Z,99925.13
2023-02-19T12:30:34.421Z,99928.72
2023-02-19T12:33:18.411Z,99924.56
2023-02-19T12:35:53.869Z,99924.38
2023-02-19T12:38:50.808Z,99920.72
2023-02-19T12:41:34.863Z,99926.44
2023-02-19T12:44:04.052Z,99930.28
2023-02-19T12:46:38.429Z,99827.50
2023-02-19T12:49:11.009Z,99910.28
2023-02-19T12:51:46.657Z,99915.34
2023-02-19T12:54:21.747Z,99889.28
2023-02-19T12:56:57.829Z,99698.03
2023-02-19T12:59:38.762Z,99901.09
2023-02-19T13:02:08.306Z,99903.50
2023-02-19T13:05:11.282Z,99897.41
2023-02-19T13:07:40.480Z,99878.78
2023-02-19T13:10:29.151Z,99894.19
2023-02-19T13:13:00.405Z,99881.91
2023-02-19T13:15:35.933Z,99881.63
2023-02-19T13:18:05.205Z,99872.81
2023-02-19T13:20:43.974Z,99735.13
2023-02-19T13:23:46.681Z,99870.56
2023-02-19T13:26:23.487Z,99863.84
2023-02-19T13:29:29.682Z,99874.88
2023-02-19T13:32:33.503Z,99876.66
2023-02-19T13:35:27.661Z,99870.69
2023-02-19T13:37:59.928Z,99822.16
2023-02-19T13:40:44.950Z,99861.19
2023-02-19T13:43:27.169Z,99831.94
2023-02-19T13:46:00.387Z,99853.44
2023-02-19T13:48:33.783Z,99864.91
2023-02-19T13:51:12.959Z,99865.00
2023-02-19T13:53:43.157Z,99854.94
2023-02-19T13:56:31.691Z,99856.84
2023-02-19T13:59:11.170Z,99862.84
2023-02-19T14:01:49.876Z,99862.66
2023-02-19T14:04:22.182Z,99870.97
2023-02-19T14:07:03.949Z,99866.69
2023-02-19T14:09:44.364Z,99866.41
2023-02-19T14:12:15.887Z,99862.53
2023-02-19T14:14:45.113Z,99865.09
2023-02-19T14:17:35.881Z,99867.31
2023-02-19T14:20:23.734Z,99849.09
2023-02-19T14:23:01.503Z,99873.53
2023-02-19T14:25:31.098Z,99872.44
2023-02-19T14:28:44.917Z,99866.53
2023-02-19T14:31:34.006Z,99857.31
2023-02-19T14:34:04.883Z,99666.97
2023-02-19T14:36:48.678Z,99860.63
2023-02-19T14:39:23.839Z,99777.47
2023-02-19T14:41:54.795Z,99778.25
2023-02-19T14:44:25.123Z,99847.47
2023-02-19T14:47:00.413Z,99851.53
2023-02-19T14:49:29.825Z,99847.28
2023-02-19T14:52:00.677Z,99808.50
2023-02-19T14:54:40.175Z,99855.81
2023-02-19T14:57:15.330Z,99800.25
2023-02-19T14:59:52.199Z,99851.78
2023-02-19T15:02:21.065Z,99732.50
2023-02-19T15:04:47.800Z,99838.31
2023-02-19T15:07:19.317Z,99850.66
2023-02-19T15:09:51.888Z,99848.72
2023-02-19T15:12:23.275Z,99817.25
2023-02-19T15:14:53.175Z,99781.22
2023-02-19T15:17:26.792Z,99849.69
2023-02-19T15:19:55.568Z,99846.09
2023-02-19T15:22:24.794Z,99843.81
2023-02-19T15:24:51.835Z,99842.69
2023-02-19T15:27:21.369Z,99807.72
2023-02-19T15:29:52.935Z,99735.13
2023-02-19T15:32:24.004Z,99836.34
2023-02-19T15:35:02.801Z,99820.44
2023-02-19T15:37:33.832Z,99804.41
2023-02-19T15:40:05.586Z,99882.97
2023-02-19T15:42:37.200Z,99688.88
2023-02-19T15:45:22.165Z,99814.25
2023-02-19T15:48:10.452Z,99814.91
2023-02-19T15:50:43.998Z,99769.34
2023-02-19T15:53:23.558Z,99810.50
2023-02-19T15:56:16.888Z,99807.19
2023-02-19T15:58:55.576Z,99804.16
2023-02-19T16:01:25.729Z,99804.72
2023-02-19T16:03:55.705Z,99714.91
2023-02-19T16:06:26.858Z,99771.41
2023-02-19T16:09:05.775Z,99801.94
2023-02-19T16:11:47.505Z,99788.13
2023-02-19T16:14:31.108Z,99778.72
2023-02-19T16:17:11.762Z,99787.16
2023-02-19T16:19:53.437Z,99782.31
2023-02-19T16:22:24.435Z,99750.03
2023-02-19T16:25:00.504Z,99773.50
2023-02-19T16:27:37.769Z,99778.78
2023-02-19T16:30:09.398Z,99772.47
2023-02-19T16:32:36.182Z,99777.53
2023-02-19T16:35:02.811Z,99775.72
2023-02-19T16:37:40.813Z,99769.03
2023-02-19T16:40:07.609Z,99771.50
2023-02-19T16:42:49.754Z,99654.50
2023-02-19T16:45:16.896Z,99646.75
2023-02-19T16:47:51.258Z,99726.69
2023-02-19T16:50:21.854Z,99754.16
2023-02-19T16:52:56.866Z,99752.53
2023-02-19T16:55:24.415Z,99737.50
2023-02-19T16:57:51.573Z,99481.97
2023-02-19T17:00:23.308Z,99793.91
2023-02-19T17:02:55.584Z,99741.63
2023-02-19T17:05:23.489Z,99738.84
2023-02-19T17:07:50.455Z,99746.59
2023-02-19T17:10:19.638Z,99747.34
2023-02-19T17:12:46.680Z,99682.06
2023-02-19T17:15:13.431Z,99695.84
2023-02-19T17:17:40.623Z,99744.19
2023-02-19T17:20:17.821Z,99761.00
2023-02-19T17:22:44.904Z,99736.69
2023-02-19T17:25:11.469Z,99733.09
2023-02-19T17:27:38.184Z,99729.25
2023-02-19T17:30:16.705Z,99686.56
2023-02-19T17:32:43.387Z,99555.47
2023-02-19T17:35:09.967Z,99671.00
2023-02-19T17:37:36.627Z,99664.13
2023-02-19T17:40:03.363Z,99723.53
2023-02-19T17:42:29.966Z,99646.59
2023-02-19T17:44:56.573Z,99681.03
2023-02-19T17:47:23.194Z,99727.97
2023-02-19T17:49:49.758Z,99711.72
2023-02-19T17:52:17.811Z,99702.19
2023-02-19T17:54:44.500Z,99529.72
2023-02-19T17:57:11.160Z,99728.06
2023-02-19T17:59:37.813Z,99583.97
2023-02-19T18:02:04.435Z,99715.72
2023-02-19T18:04:31.056Z,99713.53
2023-02-19T18:06:57.807Z,99723.44
2023-02-19T18:09:24.637Z,99722.53
2023-02-19T18:11:51.290Z,99719.34
2023-02-19T18:14:17.849Z,99593.53
2023-02-19T18:16:49.395Z,99704.38
2023-02-19T18:19:16.902Z,99440.91
2023-02-19T18:21:43.487Z,99697.47
2023-02-19T18:24:10.093Z,99572.91
2023-02-19T18:26:36.688Z,99639.94
2023-02-19T18:29:05.294Z,99552.00
2023-02-19T18:31:33.205Z,99689.50
2023-02-19T18:33:59.884Z,99686.94
2023-02-19T18:36:26.655Z,99678.56
2023-02-19T18:38:53.239Z,99666.41
2023-02-19T18:41:21.002Z,99659.09
2023-02-19T18:43:48.227Z,99662.91
2023-02-19T18:46:15.015Z,99657.19
2023-02-19T18:48:41.692Z,99658.03
2023-02-19T18:51:12.119Z,99657.94
2023-02-19T18:53:39.014Z,99660.00
2023-02-19T18:56:05.952Z,99587.50
2023-02-19T18:58:32.576Z,99509.88
2023-02-19T19:00:59.509Z,99645.56
2023-02-19T19:03:26.396Z,99574.16
2023-02-19T19:05:53.224Z,99633.34
2023-02-19T19:08:19.837Z,99627.66
2023-02-19T19:10:46.461Z,99503.97
2023-02-19T19:13:13.176Z,99634.72
2023-02-19T19:15:41.359Z,99637.41
2023-02-19T19:18:09.043Z,99574.78
2023-02-19T19:20:35.761Z,99643.84
2023-02-19T19:23:02.461Z,99641.78
2023-02-19T19:25:29.030Z,99596.03
2023-02-19T19:27:56.636Z,99592.94
2023-02-19T19:30:23.772Z,99612.53
2023-02-19T19:32:52.292Z,99567.66
2023-02-19T19:35:20.584Z,99598.94
2023-02-19T19:37:47.527Z,99597.13
2023-02-19T19:40:16.969Z,99600.59
2023-02-19T19:42:44.634Z,99598.94
2023-02-19T19:45:12.472Z,99583.22
2023-02-19T19:47:46.859Z,99607.56
2023-02-19T19:50:14.458Z,99593.88
2023-02-19T19:52:41.142Z,99559.25
2023-02-19T19:55:08.059Z,99567.31
2023-02-19T19:57:34.608Z,99597.28
2023-02-19T20:00:01.373Z,99588.66
2023-02-19T20:02:28.661Z,99577.63
2023-02-19T20:04:55.761Z,99566.19
2023-02-19T20:07:22.318Z,99562.91
2023-02-19T20:09:49.371Z,99558.78
2023-02-19T20:12:16.864Z,99536.00
2023-02-19T20:14:45.785Z,99541.97
2023-02-19T20:17:12.904Z,99549.78
2023-02-19T20:19:39.526Z,99538.25
2023-02-19T20:22:06.225Z,99518.19
2023-02-19T20:24:32.875Z,99524.38
2023-02-19T20:27:01.819Z,99521.13
2023-02-19T20:29:30.748Z,99558.09
2023-02-19T20:31:59.915Z,99517.94
2023-02-19T20:34:27.183Z,99530.25
2023-02-19T20:36:54.330Z,99520.13
2023-02-19T20:39:22.161Z,99495.91
2023-02-19T20:41:50.897Z,99492.47
2023-02-19T20:44:18.774Z,99496.38
2023-02-19T20:46:50.430Z,99491.03
2023-02-19T20:49:20.524Z,99285.09
2023-02-19T20:51:50.072Z,99429.22
2023-02-19T20:54:18.241Z,99454.38
2023-02-19T20:56:46.119Z,99480.78
2023-02-19T20:59:13.959Z,99484.94
2023-02-19T21:01:40.876Z,99465.25
2023-02-19T21:04:07.772Z,99459.38
2023-02-19T21:06:34.526Z,99411.50
2023-02-19T21:09:01.156Z,99436.69
2023-02-19T21:11:27.946Z,99393.44
2023-02-19T21:13:58.906Z,99428.13
2023-02-19T21:16:26.945Z,99433.72
2023-02-19T21:18:53.751Z,99366.47
2023-02-19T21:21:25.027Z,99426.94
2023-02-19T21:23:55.925Z,99428.75
2023-02-19T21:26:23.851Z,99366.09
2023-02-19T21:28:51.610Z,99426.19
2023-02-19T21:31:19.182Z,99360.38
2023-02-19T21:33:46.441Z,99405.88
2023-02-19T21:36:13.313Z,99386.75
2023-02-19T21:38:39.977Z,99377.59
2023-02-19T21:41:06.551Z,99267.19
2023-02-19T21:43:33.098Z,99306.47
2023-02-19T21:45:59.752Z,99332.34
2023-02-19T21:48:26.354Z,98873.69
2023-02-19T21:50:52.975Z,99323.03
2023-02-19T21:53:19.671Z,99204.09
2023-02-19T21:55:57.902Z,99209.28
2023-02-19T21:58:26.030Z,99242.72
2023-02-19T22:00:53.995Z,99180.47
2023-02-19T22:03:21.089Z,99296.97
2023-02-19T22:05:47.695Z,99252.72
2023-02-19T22:08:15.916Z,99299.47
2023-02-19T22:10:42.585Z,99003.53
2023-02-19T22:13:10.119Z,99272.84
2023-02-19T22:15:36.856Z,99272.97
2023-02-19T22:18:03.650Z,98829.66
2023-02-19T22:20:30.569Z,99095.97
2023-02-19T22:22:57.150Z,99265.75
2023-02-19T22:25:23.705Z,99251.84
2023-02-19T22:27:50.299Z,99255.13
2023-02-19T22:30:17.264Z,99243.06
2023-02-19T22:32:43.907Z,99135.31
2023-02-19T22:35:10.552Z,99172.16
2023-02-19T22:37:37.174Z,98959.00
2023-02-19T22:40:03.907Z,99205.38
2023-02-19T22:42:30.528Z,99193.09
2023-02-19T22:44:57.139Z,99183.78
2023-02-19T22:47:23.852Z,99183.25
2023-02-19T22:49:50.462Z,99182.94
2023-02-19T22:52:17.101Z,99162.00
2023-02-19T22:54:43.740Z,99155.38
2023-02-19T22:57:10.286Z,99093.00
2023-02-19T22:59:36.890Z,99133.75
2023-02-19T23:02:03.618Z,99130.44
2023-02-19T23:04:30.422Z,99125.09
2023-02-19T23:06:57.000Z,99120.53
2023-02-19T23:09:26.461Z,99125.13
2023-02-19T23:11:54.668Z,99013.19
2023-02-19T23:14:22.031Z,99082.50
2023-02-19T23:16:48.629Z,99095.38
2023-02-19T23:19:15.975Z,99078.75
2023-02-19T23:21:44.526Z,99059.78
2023-02-19T23:24:12.309Z,99039.41
2023-02-19T23:26:47.191Z,99033.19
2023-02-19T23:29:19.220Z,99025.56
2023-02-19T23:31:46.146Z,99024.28
2023-02-19T23:34:13.627Z,99018.31
2023-02-19T23:36:41.796Z,99051.09
2023-02-19T23:39:11.377Z,98985.81
2023-02-19T23:41:38.221Z,98905.75
2023-02-19T23:44:05.368Z,98992.03
2023-02-19T23:46:33.835Z,98769.94
2023-02-19T23:49:00.432Z,98875.97
2023-02-19T23:51:27.021Z,98954.19
2023-02-19T23:53:53.640Z,98970.84
2023-02-19T23:56:25.198Z,98861.00
2023-02-19T23:58:51.837Z,98853.75
